createdAt,value
2018-07-06T00:00:03.285Z,3.10
2018-07-06T00:02:43.357Z,2.83
2018-07-06T00:05:23.601Z,2.93
2018-07-06T00:08:03.754Z,3.00
2018-07-06T00:10:43.925Z,2.90
2018-07-06T00:13:24.054Z,2.97
2018-07-06T00:16:04.191Z,2.90
2018-07-06T00:18:44.358Z,3.03
2018-07-06T00:21:24.522Z,3.17
2018-07-06T00:24:04.680Z,2.80
2018-07-06T00:26:44.870Z,3.10
2018-07-06T00:29:25.827Z,3.20
2018-07-06T00:32:05.842Z,3.00
2018-07-06T00:34:46.082Z,3.47
2018-07-06T00:37:26.278Z,3.30
2018-07-06T00:40:06.846Z,3.23
2018-07-06T00:42:47.098Z,3.60
2018-07-06T00:45:27.318Z,3.50
2018-07-06T00:48:07.417Z,3.30
2018-07-06T00:50:47.579Z,3.20
2018-07-06T00:53:28.462Z,3.33
2018-07-06T00:56:09.307Z,3.37
2018-07-06T00:58:49.553Z,3.30
2018-07-06T01:01:31.385Z,3.60
2018-07-06T01:04:11.557Z,3.23
2018-07-06T01:06:51.756Z,3.70
2018-07-06T01:09:31.793Z,3.33
2018-07-06T01:12:11.954Z,3.70
2018-07-06T01:14:52.218Z,3.43
2018-07-06T01:17:32.402Z,4.13
2018-07-06T01:20:13.205Z,3.60
2018-07-06T01:22:53.417Z,3.70
2018-07-06T01:25:33.545Z,4.10
2018-07-06T01:28:13.652Z,3.73
2018-07-06T01:30:53.815Z,4.17
2018-07-06T01:33:33.969Z,4.80
2018-07-06T01:36:14.165Z,4.30
2018-07-06T01:38:54.412Z,4.67
2018-07-06T01:41:34.638Z,5.10
2018-07-06T01:44:14.743Z,4.93
2018-07-06T01:46:54.666Z,5.20
2018-07-06T01:49:34.859Z,5.00
2018-07-06T01:52:15.642Z,5.27
2018-07-06T01:54:55.818Z,5.20
2018-07-06T01:57:35.926Z,5.10
2018-07-06T02:00:16.907Z,5.53
2018-07-06T02:02:57.751Z,5.03
2018-07-06T02:05:37.994Z,5.77
2018-07-06T02:08:17.996Z,5.10
2018-07-06T02:10:58.243Z,5.40
2018-07-06T02:13:38.898Z,5.70
2018-07-06T02:16:19.860Z,5.70
2018-07-06T02:19:00.066Z,6.27
2018-07-06T02:21:40.182Z,5.87
2018-07-06T02:24:21.084Z,7.27
2018-07-06T02:27:01.231Z,6.63
2018-07-06T02:29:42.115Z,6.53
2018-07-06T02:32:22.302Z,7.60
2018-07-06T02:35:02.509Z,7.50
2018-07-06T02:37:42.567Z,8.70
2018-07-06T02:40:22.637Z,8.63
2018-07-06T02:43:02.722Z,8.50
2018-07-06T02:45:42.787Z,8.60
2018-07-06T02:48:23.593Z,8.23
2018-07-06T02:51:03.878Z,8.40
2018-07-06T02:53:44.427Z,8.83
2018-07-06T02:56:24.706Z,9.27
2018-07-06T02:59:04.832Z,8.50
2018-07-06T03:01:45.035Z,8.20
2018-07-06T03:04:25.161Z,8.33
2018-07-06T03:07:05.415Z,8.53
2018-07-06T03:09:45.685Z,8.60
2018-07-06T03:12:25.977Z,8.33
2018-07-06T03:15:06.802Z,8.83
2018-07-06T03:17:46.966Z,9.07
2018-07-06T03:20:27.122Z,8.77
2018-07-06T03:23:07.325Z,9.33
2018-07-06T03:25:47.581Z,8.80
2018-07-06T03:28:27.783Z,9.47
2018-07-06T03:31:07.829Z,9.27
2018-07-06T03:33:47.998Z,9.27
2018-07-06T03:36:28.372Z,9.10
2018-07-06T03:39:09.203Z,9.53
2018-07-06T03:41:50.121Z,9.83
2018-07-06T03:44:32.296Z,9.97
2018-07-06T03:47:12.483Z,9.63
2018-07-06T03:49:53.267Z,9.40
2018-07-06T03:52:33.970Z,9.60
2018-07-06T03:55:14.144Z,9.90
2018-07-06T03:57:54.327Z,8.83
2018-07-06T04:00:35.361Z,9.57
2018-07-06T04:03:15.510Z,9.57
2018-07-06T04:05:55.534Z,9.73
2018-07-06T04:08:35.769Z,9.43
2018-07-06T04:11:15.871Z,9.33
2018-07-06T04:13:56.047Z,8.90
2018-07-06T04:16:36.805Z,9.87
2018-07-06T04:19:17.101Z,9.27
2018-07-06T04:21:57.171Z,9.47
2018-07-06T04:24:37.494Z,9.20
2018-07-06T04:27:18.445Z,10.30
2018-07-06T04:29:58.972Z,9.23
2018-07-06T04:32:39.154Z,9.40
2018-07-06T04:35:19.415Z,9.50
2018-07-06T04:37:59.666Z,10.60
2018-07-06T04:40:39.844Z,9.93
2018-07-06T04:43:20.621Z,10.20
2018-07-06T04:46:01.589Z,10.20
2018-07-06T04:48:42.523Z,10.17
2018-07-06T04:51:22.755Z,10.60
2018-07-06T04:54:02.919Z,10.40
2018-07-06T04:56:43.826Z,10.67
2018-07-06T04:59:23.981Z,11.10
2018-07-06T05:02:04.259Z,12.00
2018-07-06T05:04:45.103Z,11.13
2018-07-06T05:07:25.380Z,10.30
2018-07-06T05:10:06.345Z,10.90
2018-07-06T05:12:47.293Z,10.57
2018-07-06T05:15:27.286Z,11.37
2018-07-06T05:18:08.235Z,11.13
2018-07-06T05:20:49.169Z,11.03
2018-07-06T05:23:29.314Z,10.90
2018-07-06T05:26:09.483Z,11.60
2018-07-06T05:28:49.674Z,10.93
2018-07-06T05:31:30.598Z,11.77
2018-07-06T05:34:11.494Z,11.43
2018-07-06T05:36:51.655Z,11.10
2018-07-06T05:39:31.793Z,10.90
2018-07-06T05:42:11.905Z,10.80
2018-07-06T05:44:52.104Z,11.80
2018-07-06T05:47:32.227Z,11.33
2018-07-06T05:50:12.299Z,10.70
2018-07-06T05:52:52.498Z,11.60
2018-07-06T05:55:33.494Z,11.57
2018-07-06T05:58:14.062Z,11.93
2018-07-06T06:00:54.159Z,11.77
2018-07-06T06:03:34.548Z,11.97
2018-07-06T06:06:15.370Z,12.50
2018-07-06T06:08:43.409Z,12.50
2018-07-06T06:11:11.666Z,13.50
2018-07-06T06:13:39.908Z,12.37
2018-07-06T06:16:08.435Z,12.67
2018-07-06T06:18:36.720Z,12.80
2018-07-06T06:21:05.737Z,13.27
2018-07-06T06:23:34.105Z,12.83
2018-07-06T06:26:02.415Z,12.87
2018-07-06T06:28:30.683Z,12.73
2018-07-06T06:30:58.971Z,12.47
2018-07-06T06:33:27.389Z,12.37
2018-07-06T06:35:55.579Z,11.97
2018-07-06T06:38:23.834Z,13.17
2018-07-06T06:40:52.136Z,13.47
2018-07-06T06:43:20.374Z,12.80
2018-07-06T06:45:48.633Z,12.23
2018-07-06T06:48:17.646Z,12.50
2018-07-06T06:50:45.969Z,13.03
2018-07-06T06:53:14.999Z,12.30
2018-07-06T06:55:43.217Z,12.40
2018-07-06T06:58:11.487Z,12.23
2018-07-06T07:00:39.798Z,12.23
2018-07-06T07:03:08.078Z,11.83
2018-07-06T07:05:36.330Z,12.47
2018-07-06T07:08:04.583Z,11.80
2018-07-06T07:10:33.054Z,12.60
2018-07-06T07:13:01.325Z,13.57
2018-07-06T07:15:29.583Z,12.30
2018-07-06T07:17:57.855Z,13.63
2018-07-06T07:20:26.945Z,13.77
2018-07-06T07:22:55.963Z,12.80
2018-07-06T07:25:24.379Z,13.27
2018-07-06T07:27:52.634Z,12.50
2018-07-06T07:30:20.897Z,13.87
2018-07-06T07:32:49.170Z,13.37
2018-07-06T07:35:17.423Z,12.50
2018-07-06T07:37:45.682Z,13.33
2018-07-06T07:40:14.745Z,12.93
2018-07-06T07:42:43.006Z,12.90
2018-07-06T07:45:11.290Z,12.90
2018-07-06T07:47:40.338Z,12.67
2018-07-06T07:50:09.402Z,15.17
2018-07-06T07:52:49.507Z,13.73
2018-07-06T07:55:17.796Z,13.73
2018-07-06T07:57:46.066Z,14.57
2018-07-06T08:00:14.355Z,13.40
2018-07-06T08:02:42.623Z,13.47
2018-07-06T08:05:10.897Z,13.07
2018-07-06T08:07:39.152Z,13.90
2018-07-06T08:10:07.422Z,14.33
2018-07-06T08:12:35.789Z,16.00
2018-07-06T08:15:04.079Z,14.60
2018-07-06T08:17:32.339Z,13.77
2018-07-06T08:20:00.591Z,14.33
2018-07-06T08:22:28.872Z,13.30
2018-07-06T08:24:57.887Z,12.77
2018-07-06T08:27:26.158Z,13.30
2018-07-06T08:29:54.481Z,13.07
2018-07-06T08:32:23.600Z,13.40
2018-07-06T08:35:03.787Z,13.70
2018-07-06T08:37:44.595Z,14.27
2018-07-06T08:40:12.865Z,13.80
2018-07-06T08:42:41.110Z,12.57
2018-07-06T08:45:09.463Z,12.73
2018-07-06T08:47:37.700Z,11.80
2018-07-06T08:50:05.964Z,14.13
2018-07-06T08:52:34.260Z,13.10
2018-07-06T08:55:02.505Z,12.13
2018-07-06T08:57:30.760Z,12.53
2018-07-06T08:59:59.328Z,12.73
2018-07-06T09:02:28.339Z,13.17
2018-07-06T09:04:56.650Z,13.90
2018-07-06T09:07:25.667Z,13.53
2018-07-06T09:09:55.950Z,13.33
2018-07-06T09:12:26.172Z,12.40
2018-07-06T09:14:54.427Z,13.00
2018-07-06T09:17:22.708Z,13.83
2018-07-06T09:19:50.842Z,12.83
2018-07-06T09:22:18.950Z,11.10
2018-07-06T09:24:47.226Z,10.80
2018-07-06T09:27:15.490Z,11.37
2018-07-06T09:29:43.747Z,10.47
2018-07-06T09:32:13.057Z,9.63
2018-07-06T09:34:41.302Z,7.13
2018-07-06T09:37:09.546Z,6.43
2018-07-06T09:39:37.800Z,7.63
2018-07-06T09:42:06.062Z,7.70
2018-07-06T09:44:34.306Z,7.97
2018-07-06T09:47:02.569Z,6.70
2018-07-06T09:49:30.842Z,6.33
2018-07-06T09:51:59.079Z,6.10
2018-07-06T09:54:27.341Z,6.07
2018-07-06T09:56:55.350Z,4.93
2018-07-06T09:59:23.593Z,4.50
2018-07-06T10:01:51.866Z,3.90
2018-07-06T10:04:20.129Z,4.17
2018-07-06T10:06:49.119Z,4.00
2018-07-06T10:09:17.377Z,4.67
2018-07-06T10:11:46.386Z,3.60
2018-07-06T10:14:14.630Z,3.40
2018-07-06T10:16:42.890Z,2.37
2018-07-06T10:19:12.642Z,2.53
2018-07-06T10:21:40.904Z,2.50
2018-07-06T10:24:09.914Z,2.63
2018-07-06T10:26:38.149Z,2.10
2018-07-06T10:29:06.429Z,2.00
2018-07-06T10:31:34.678Z,2.20
2018-07-06T10:34:02.921Z,1.67
2018-07-06T10:36:31.193Z,1.80
2018-07-06T10:38:59.444Z,1.50
2018-07-06T10:41:33.658Z,1.93
2018-07-06T10:44:08.674Z,1.90
2018-07-06T10:46:43.625Z,1.90
2018-07-06T10:49:17.742Z,2.00
2018-07-06T10:51:52.166Z,1.80
2018-07-06T10:54:26.393Z,1.80
2018-07-06T10:57:00.654Z,1.87
2018-07-06T10:59:34.828Z,1.93
2018-07-06T11:02:09.366Z,1.80
2018-07-06T11:04:43.638Z,1.80
2018-07-06T11:07:18.025Z,1.67
2018-07-06T11:09:52.322Z,1.17
2018-07-06T11:12:27.250Z,2.67
2018-07-06T11:15:01.420Z,2.60
2018-07-06T12:17:47.855Z,3.53
2018-07-06T12:20:16.162Z,4.00
2018-07-06T12:22:44.363Z,6.10
2018-07-06T12:25:12.621Z,5.57
2018-07-06T12:27:41.636Z,5.37
2018-07-06T12:30:09.875Z,5.23
2018-07-06T12:32:39.089Z,4.77
2018-07-06T12:35:08.098Z,4.20
2018-07-06T12:37:36.342Z,5.97
2018-07-06T12:40:05.437Z,7.17
2018-07-06T12:42:33.650Z,7.10
2018-07-06T12:45:01.888Z,6.53
2018-07-06T12:47:30.414Z,6.53
2018-07-06T12:49:58.654Z,5.50
2018-07-06T12:52:27.689Z,5.67
2018-07-06T12:54:55.913Z,5.10
2018-07-06T12:57:24.925Z,4.77
2018-07-06T12:59:53.175Z,5.13
2018-07-06T13:02:21.432Z,4.90
2018-07-06T13:04:49.688Z,4.20
2018-07-06T13:07:17.953Z,4.73
2018-07-06T13:09:46.210Z,3.60
2018-07-06T13:12:14.463Z,3.63
2018-07-06T13:14:42.724Z,3.40
2018-07-06T13:17:11.007Z,2.93
2018-07-06T13:19:39.220Z,2.90
2018-07-06T13:22:07.452Z,2.80
2018-07-06T13:24:36.484Z,2.73
2018-07-06T13:27:04.731Z,2.50
2018-07-06T13:29:33.770Z,3.03
2018-07-06T13:32:02.017Z,1.40
2018-07-06T13:34:30.259Z,1.40
2018-07-06T13:36:58.521Z,1.40
2018-07-06T13:39:26.805Z,1.70
2018-07-06T13:41:55.019Z,1.13
2018-07-06T13:44:23.283Z,1.30
2018-07-06T13:46:52.291Z,1.33
2018-07-06T13:49:20.540Z,1.37
2018-07-06T13:51:49.543Z,1.23
2018-07-06T13:54:17.789Z,1.53
2018-07-06T13:56:46.815Z,1.37
2018-07-06T13:59:15.162Z,1.40
2018-07-06T14:01:43.819Z,1.20
2018-07-06T14:04:12.967Z,1.37
2018-07-06T14:06:41.201Z,1.30
2018-07-06T14:09:09.453Z,1.30
2018-07-06T14:11:38.190Z,1.50
2018-07-06T14:14:10.136Z,1.40
2018-07-06T14:16:38.382Z,1.47
2018-07-06T14:19:06.618Z,1.90
2018-07-06T14:21:34.871Z,1.67
2018-07-06T14:24:03.993Z,1.90
2018-07-06T14:26:32.242Z,1.67
2018-07-06T14:29:01.262Z,2.00
2018-07-06T14:31:30.549Z,1.40
2018-07-06T14:33:58.799Z,1.60
2018-07-06T14:36:27.048Z,1.60
2018-07-06T14:38:55.278Z,1.40
2018-07-06T14:41:23.556Z,1.40
2018-07-06T14:43:52.565Z,1.30
2018-07-06T14:46:21.651Z,1.30
2018-07-06T14:48:49.908Z,1.50
2018-07-06T14:51:18.171Z,1.40
2018-07-06T14:53:47.181Z,1.50
2018-07-06T14:56:15.458Z,1.57
2018-07-06T14:58:43.703Z,1.60
2018-07-06T15:01:12.735Z,1.30
2018-07-06T15:03:40.973Z,1.70
2018-07-06T15:06:09.981Z,1.60
2018-07-06T15:08:38.251Z,1.70
2018-07-06T15:11:06.492Z,1.40
2018-07-06T15:13:34.765Z,1.60
2018-07-06T15:16:03.008Z,1.87
2018-07-06T15:18:31.331Z,1.93
2018-07-06T15:21:00.310Z,1.83
2018-07-06T15:23:28.536Z,1.90
2018-07-06T15:25:56.806Z,2.00
2018-07-06T15:28:25.060Z,1.83
2018-07-06T15:30:54.079Z,1.70
2018-07-06T15:33:22.658Z,2.00
2018-07-06T15:35:51.003Z,1.90
2018-07-06T15:38:19.209Z,1.90
2018-07-06T15:40:47.470Z,2.00
2018-07-06T15:43:15.714Z,2.03
2018-07-06T15:45:43.958Z,2.20
2018-07-06T15:48:12.205Z,2.00
2018-07-06T15:50:40.450Z,2.10
2018-07-06T15:53:09.465Z,1.83
2018-07-06T15:55:37.717Z,1.87
2018-07-06T15:58:06.726Z,1.87
2018-07-06T16:00:34.984Z,2.03
2018-07-06T16:03:04.089Z,2.00
2018-07-06T16:05:33.129Z,2.30
2018-07-06T16:08:01.388Z,2.00
2018-07-06T16:10:29.629Z,2.07
2018-07-06T16:12:58.641Z,2.53
2018-07-06T16:15:28.077Z,2.60
2018-07-06T16:17:56.307Z,2.30
2018-07-06T16:20:24.662Z,2.47
2018-07-06T16:22:54.846Z,2.40
2018-07-06T16:25:23.094Z,2.27
2018-07-06T16:27:51.379Z,2.30
2018-07-06T16:30:19.601Z,2.90
2018-07-06T16:32:47.916Z,2.83
2018-07-06T16:35:16.152Z,3.07
2018-07-06T16:37:44.386Z,3.20
2018-07-06T16:40:12.661Z,2.60
2018-07-06T16:42:40.907Z,2.70
2018-07-06T16:45:09.296Z,2.10
2018-07-06T16:47:37.535Z,2.67
2018-07-06T16:50:05.771Z,1.93
2018-07-06T16:52:34.031Z,1.90
2018-07-06T16:55:02.297Z,2.30
2018-07-06T16:57:30.554Z,1.90
2018-07-06T16:59:58.797Z,1.90
2018-07-06T17:02:27.054Z,2.00
2018-07-06T17:04:55.297Z,2.30
2018-07-06T17:07:23.533Z,1.70
2018-07-06T17:09:52.561Z,2.10
2018-07-06T17:12:20.831Z,1.77
2018-07-06T17:14:49.067Z,2.33
2018-07-06T17:17:17.309Z,2.20
2018-07-06T17:19:45.559Z,2.50
2018-07-06T17:22:13.806Z,2.47
2018-07-06T17:24:42.806Z,2.53
2018-07-06T17:27:11.073Z,2.40
2018-07-06T17:29:40.092Z,2.40
2018-07-06T17:32:08.337Z,2.43
2018-07-06T17:34:37.355Z,2.90
2018-07-06T17:37:05.600Z,2.60
2018-07-06T17:39:34.624Z,2.67
2018-07-06T17:42:02.875Z,3.30
2018-07-06T17:44:31.917Z,2.93
2018-07-06T17:47:00.180Z,3.00
2018-07-06T17:49:28.409Z,3.50
2018-07-06T17:51:57.420Z,3.23
2018-07-06T17:54:26.446Z,3.20
2018-07-06T17:56:54.708Z,3.00
2018-07-06T17:59:22.945Z,3.37
2018-07-06T18:01:51.966Z,3.23
2018-07-06T18:04:20.211Z,2.77
2018-07-06T18:06:49.217Z,3.03
2018-07-06T18:09:18.332Z,2.67
2018-07-06T18:11:46.486Z,2.90
2018-07-06T18:14:15.857Z,2.97
2018-07-06T18:16:44.350Z,2.70
2018-07-06T18:19:12.581Z,2.90
2018-07-06T18:21:40.830Z,2.90
2018-07-06T18:24:09.096Z,2.73
2018-07-06T18:26:38.091Z,3.00
2018-07-06T18:29:06.361Z,2.80
2018-07-06T18:31:35.378Z,3.00
2018-07-06T18:34:03.624Z,3.07
2018-07-06T18:36:32.635Z,3.40
2018-07-06T18:39:00.894Z,3.07
2018-07-06T18:41:29.150Z,3.10
2018-07-06T18:43:57.659Z,3.50
2018-07-06T18:46:25.916Z,3.47
2018-07-06T18:48:54.921Z,3.60
2018-07-06T18:51:23.212Z,3.40
2018-07-06T18:53:51.446Z,5.00
2018-07-06T18:56:19.694Z,8.73
2018-07-06T18:58:47.957Z,10.23
2018-07-06T19:01:16.207Z,9.23
2018-07-06T19:03:44.475Z,8.87
2018-07-06T19:06:12.761Z,8.53
2018-07-06T19:08:41.006Z,8.60
2018-07-06T19:11:10.023Z,8.60
2018-07-06T19:13:39.051Z,8.87
2018-07-06T19:16:07.310Z,8.20
2018-07-06T19:18:35.561Z,8.67
2018-07-06T19:21:03.826Z,9.00
2018-07-06T19:23:32.835Z,8.57
2018-07-06T19:26:01.091Z,8.53
2018-07-06T19:28:30.234Z,8.30
2018-07-06T19:30:58.587Z,8.07
2018-07-06T19:33:27.621Z,9.00
2018-07-06T19:35:56.220Z,9.13
2018-07-06T19:38:24.442Z,8.50
2018-07-06T19:40:53.082Z,8.63
2018-07-06T19:43:24.158Z,8.30
2018-07-06T19:45:52.548Z,8.20
2018-07-06T19:48:20.799Z,9.13
2018-07-06T19:50:49.043Z,8.67
2018-07-06T19:53:17.309Z,9.17
2018-07-06T19:55:45.585Z,8.70
2018-07-06T19:58:13.898Z,8.77
2018-07-06T20:00:42.115Z,8.67
2018-07-06T20:03:10.364Z,8.90
2018-07-06T20:05:38.780Z,8.13
2018-07-06T20:08:07.034Z,8.23
2018-07-06T20:10:35.307Z,7.27
2018-07-06T20:13:03.577Z,6.90
2018-07-06T20:15:31.802Z,7.37
2018-07-06T20:18:00.819Z,6.97
2018-07-06T20:20:29.091Z,7.43
2018-07-06T20:22:58.098Z,7.50
2018-07-06T20:25:26.616Z,7.33
2018-07-06T20:27:54.850Z,7.03
2018-07-06T20:30:23.122Z,7.00
2018-07-06T20:32:52.122Z,7.63
2018-07-06T20:35:20.416Z,7.17
2018-07-06T20:37:48.671Z,7.50
2018-07-06T20:40:16.903Z,7.90
2018-07-06T20:42:45.167Z,8.00
2018-07-06T20:45:13.420Z,7.77
2018-07-06T20:47:41.657Z,7.50
2018-07-06T20:50:09.905Z,7.20
2018-07-06T20:52:38.930Z,7.30
2018-07-06T20:55:07.186Z,7.43
2018-07-06T20:57:36.190Z,7.60
2018-07-06T21:00:04.449Z,7.17
2018-07-06T21:02:33.466Z,7.17
2018-07-06T21:05:01.706Z,7.17
2018-07-06T21:07:30.734Z,6.97
2018-07-06T21:09:58.984Z,7.10
2018-07-06T21:12:28.011Z,6.83
2018-07-06T21:14:56.265Z,6.97
2018-07-06T21:17:25.336Z,7.70
2018-07-06T21:19:53.587Z,6.67
2018-07-06T21:22:21.843Z,6.90
2018-07-06T21:24:50.084Z,6.63
2018-07-06T21:27:18.760Z,6.20
2018-07-06T21:29:47.023Z,6.87
2018-07-06T21:32:16.830Z,6.80
2018-07-06T21:34:45.088Z,6.97
2018-07-06T21:37:13.341Z,7.30
2018-07-06T21:39:41.585Z,7.43
2018-07-06T21:42:09.865Z,7.23
2018-07-06T21:44:38.200Z,7.83
2018-07-06T21:47:06.474Z,7.07
2018-07-06T21:49:34.807Z,7.67
2018-07-06T21:52:03.110Z,7.00
2018-07-06T21:54:31.468Z,6.90
2018-07-06T21:56:59.706Z,7.03
2018-07-06T21:59:28.710Z,7.10
2018-07-06T22:01:56.982Z,7.20
2018-07-06T22:04:25.229Z,6.60
2018-07-06T22:06:53.466Z,6.70
2018-07-06T22:09:21.980Z,7.07
2018-07-06T22:11:50.225Z,7.37
2018-07-06T22:14:18.494Z,7.40
2018-07-06T22:16:46.764Z,7.50
2018-07-06T22:19:14.998Z,7.70
2018-07-06T22:21:43.993Z,7.50
2018-07-06T22:24:12.278Z,7.50
2018-07-06T22:26:40.505Z,7.43
2018-07-06T22:29:08.780Z,7.53
2018-07-06T22:31:37.009Z,7.87
2018-07-06T22:34:05.262Z,8.10
2018-07-06T22:36:34.283Z,8.20
2018-07-06T22:39:02.526Z,8.00
2018-07-06T22:41:31.545Z,7.23
2018-07-06T22:43:59.800Z,7.67
2018-07-06T22:46:28.796Z,8.23
2018-07-06T22:48:57.055Z,7.90
2018-07-06T22:51:25.288Z,7.73
2018-07-06T22:53:53.634Z,7.87
2018-07-06T22:56:21.879Z,8.53
2018-07-06T22:58:50.995Z,8.40
2018-07-06T23:01:19.509Z,8.53
2018-07-06T23:03:48.522Z,8.33
2018-07-06T23:06:16.793Z,9.23
2018-07-06T23:08:45.023Z,8.77
2018-07-06T23:11:13.275Z,7.93
2018-07-06T23:13:42.275Z,8.57
2018-07-06T23:16:11.445Z,8.40
2018-07-06T23:18:39.688Z,8.37
2018-07-06T23:21:07.929Z,8.23
2018-07-06T23:23:36.186Z,9.00
2018-07-06T23:26:05.204Z,7.97
2018-07-06T23:28:33.465Z,8.13
2018-07-06T23:31:01.732Z,8.53
2018-07-06T23:33:30.750Z,9.13
2018-07-06T23:35:58.992Z,7.67
2018-07-06T23:38:28.026Z,8.43
2018-07-06T23:40:56.262Z,9.10
2018-07-06T23:43:25.269Z,8.77
2018-07-06T23:45:53.546Z,8.07
2018-07-06T23:48:21.789Z,8.57
2018-07-06T23:50:50.045Z,8.70
2018-07-06T23:53:18.319Z,9.03
2018-07-06T23:55:46.557Z,9.37
2018-07-06T23:58:14.897Z,8.27
